Terminal Aerodrome Forecast
Issued by NWS

Home | Current Version | Previous Version | Graphics & Text | Print | Product List | Glossary On
Versions: 1 2 3 4 5 6 7 8 9 10 11 12 13 14 15 16 17 18
000
FTUS43 KBIS 141700
TAFMOT
TAF
KMOT 141727Z 1418/1518 34013KT P6SM -SHSN BKN035
      TEMPO 1418/1421 5SM -SHSN OVC025
     FM142200 33008KT P6SM SCT050
     FM150100 VRB04KT P6SM SCT070
     FM151200 13012KT P6SM BKN070=

USA.gov is the U.S. government's official web portal to all federal, state and local government web resources and services.